Time;durP1;ratioP1;P1;durP2;ratioP2;P2;SDS_P1;SDS_P2;PMS_P1;PMS_P2;Temp;Humidity;BMP_temperature;BMP_pressure;BME280_temperature;BME280_humidity;BME280_pressure;Samples;Min_cycle;Max_cycle;Signal;HPM_P1;HPM_P2
2024/01/03 00:01:24;;;;;;;1.05;0.17;;;;;;;-6.43;61.37;101383.31;5044983;28;20059;-74
2024/01/03 00:03:53;;;;;;;0.35;0.10;;;;;;;-6.44;61.25;101376.47;5043778;28;20129;-72
2024/01/03 00:06:20;;;;;;;0.20;0.10;;;;;;;-6.39;61.25;101384.38;5043031;28;20085;-73
2024/01/03 00:08:48;;;;;;;0.55;0.10;;;;;;;-6.45;60.54;101370.50;5036408;28;20099;-73
2024/01/03 00:11:20;;;;;;;0.85;0.03;;;;;;;-6.42;61.17;101379.97;5042775;28;20144;-72
2024/01/03 00:14:07;;;;;;;0.40;0.10;;;;;;;-6.42;61.32;101377.44;5036715;28;20087;-73
2024/01/03 00:16:35;;;;;;;0.57;0.10;;;;;;;-6.42;61.19;101372.34;5041068;28;20124;-73
2024/01/03 00:19:03;;;;;;;0.10;0.10;;;;;;;-6.46;60.11;101372.97;5039685;28;20136;-73
2024/01/03 00:21:30;;;;;;;0.25;0.15;;;;;;;-6.45;60.89;101380.69;5039523;28;20095;-73
2024/01/03 00:24:01;;;;;;;1.23;0.20;;;;;;;-6.47;60.67;101379.72;5039055;28;20076;-73
2024/01/03 00:26:30;;;;;;;0.63;0.10;;;;;;;-6.49;60.51;101368.59;5041814;28;20099;-73
2024/01/03 00:28:57;;;;;;;0.20;0.10;;;;;;;-6.47;60.50;101376.28;5038350;28;20124;-73
2024/01/03 00:31:37;;;;;;;0.77;0.13;;;;;;;-6.49;60.65;101381.31;5040110;28;20107;-73
2024/01/03 00:34:06;;;;;;;0.40;0.40;;;;;;;-6.53;61.08;101378.50;5042401;28;20045;-73
2024/01/03 00:36:34;;;;;;;1.60;0.20;;;;;;;-6.51;60.58;101370.16;5039193;28;20555;-73
2024/01/03 00:39:02;;;;;;;2.53;0.13;;;;;;;-6.50;61.06;101368.50;5039463;28;20128;-73
2024/01/03 00:41:29;;;;;;;0.60;0.20;;;;;;;-6.51;61.26;101369.28;5042616;28;20563;-72
2024/01/03 00:43:56;;;;;;;0.00;0.00;;;;;;;-6.51;60.73;101370.16;5045437;28;20069;-76
2024/01/03 00:46:23;;;;;;;2.58;0.20;;;;;;;-6.53;61.15;101361.56;5044878;28;20164;-76
2024/01/03 00:48:50;;;;;;;0.65;0.20;;;;;;;-6.50;61.23;101353.22;5044962;28;20103;-76
2024/01/03 00:51:17;;;;;;;4.00;1.40;;;;;;;-6.50;61.83;101365.94;5044337;28;20480;-76
2024/01/03 00:53:44;;;;;;;0.08;0.00;;;;;;;-6.49;61.61;101362.63;5046807;28;20080;-77
2024/01/03 00:56:12;;;;;;;1.85;0.10;;;;;;;-6.47;61.27;101366.09;5042038;28;20448;-77
2024/01/03 00:58:39;;;;;;;0.63;0.10;;;;;;;-6.47;61.62;101358.47;5043950;28;20047;-76
2024/01/03 01:01:06;;;;;;;0.15;0.10;;;;;;;-6.48;61.46;101359.28;5043216;28;20164;-77
2024/01/03 01:03:33;;;;;;;1.98;0.10;;;;;;;-6.46;61.01;101355.16;5045894;28;20045;-76
2024/01/03 01:06:00;;;;;;;0.38;0.10;;;;;;;-6.47;61.05;101359.34;5044877;28;20068;-77
2024/01/03 01:08:27;;;;;;;0.43;0.20;;;;;;;-6.47;60.40;101354.25;5044053;28;20590;-76
2024/01/03 01:10:54;;;;;;;3.35;0.13;;;;;;;-6.49;61.13;101358.41;5042864;28;20555;-76
2024/01/03 01:13:23;;;;;;;1.65;0.45;;;;;;;-6.49;60.16;101353.31;5044284;28;20073;-77
2024/01/03 01:15:49;;;;;;;0.20;0.10;;;;;;;-6.49;60.67;101355.00;5047247;28;20452;-77
2024/01/03 01:18:16;;;;;;;0.77;0.00;;;;;;;-6.49;60.92;101355.00;5042270;28;20076;-76
2024/01/03 01:20:43;;;;;;;2.60;0.10;;;;;;;-6.49;60.28;101358.41;5042981;28;21162;-76
2024/01/03 01:23:10;;;;;;;0.10;0.03;;;;;;;-6.51;60.75;101354.00;5042670;28;20123;-76
2024/01/03 01:25:37;;;;;;;1.80;0.10;;;;;;;-6.52;60.35;101349.69;5046023;28;20495;-76
2024/01/03 01:28:04;;;;;;;0.20;0.10;;;;;;;-6.59;60.54;101348.50;5040139;28;20072;-77
2024/01/03 01:30:33;;;;;;;0.35;0.00;;;;;;;-6.53;60.37;101355.59;5039881;28;20124;-76
2024/01/03 01:33:00;;;;;;;0.22;0.05;;;;;;;-6.54;60.58;101356.41;5042420;28;20499;-78
2024/01/03 01:35:27;;;;;;;15.45;1.38;;;;;;;-6.54;61.17;101349.63;5041659;28;20063;-77
2024/01/03 01:37:53;;;;;;;1.75;0.20;;;;;;;-6.55;60.13;101344.44;5043069;28;20558;-76
2024/01/03 01:40:20;;;;;;;3.10;0.10;;;;;;;-6.57;60.96;101354.56;5044955;28;20095;-76
2024/01/03 01:42:47;;;;;;;0.15;0.10;;;;;;;-6.59;60.31;101352.72;5042807;28;20128;-77
2024/01/03 01:45:14;;;;;;;0.80;0.13;;;;;;;-6.60;60.53;101354.38;5041529;28;20920;-77
2024/01/03 01:47:44;;;;;;;0.22;0.20;;;;;;;-6.61;61.02;101357.69;5045237;28;20047;-76
2024/01/03 01:50:11;;;;;;;1.30;0.20;;;;;;;-6.61;60.62;101354.28;5040039;28;20079;-76
2024/01/03 01:52:40;;;;;;;0.20;0.10;;;;;;;-6.61;61.09;101346.66;5040436;28;20076;-76
2024/01/03 01:55:08;;;;;;;1.35;0.30;;;;;;;-6.65;60.65;101346.47;5046559;28;20052;-77
2024/01/03 01:57:39;;;;;;;1.55;0.17;;;;;;;-6.63;60.67;101338.03;5043038;28;20048;-76
2024/01/03 02:00:08;;;;;;;0.65;0.10;;;;;;;-6.64;60.48;101347.34;5042318;28;20435;-76
2024/01/03 02:02:36;;;;;;;1.35;0.20;;;;;;;-6.64;60.68;101339.72;5042770;28;20095;-77
2024/01/03 02:05:05;;;;;;;4.13;1.38;;;;;;;-6.63;60.60;101341.50;5043759;28;20045;-77
2024/01/03 02:07:32;;;;;;;0.30;0.10;;;;;;;-6.63;60.78;101338.94;5044628;28;20073;-76
2024/01/03 02:09:59;;;;;;;0.38;0.10;;;;;;;-6.63;61.16;101327.84;5041032;28;20069;-76
2024/01/03 02:12:30;;;;;;;2.08;0.00;;;;;;;-6.63;60.90;101338.94;5046441;28;20120;-77
2024/01/03 02:14:56;;;;;;;0.00;0.00;;;;;;;-6.62;61.27;101319.47;5043974;28;20072;-78
2024/01/03 02:17:24;;;;;;;13.80;0.85;;;;;;;-6.66;60.92;101313.31;5038660;28;20077;-78
2024/01/03 02:19:51;;;;;;;1.08;0.20;;;;;;;-6.62;60.99;101320.31;5037239;28;20072;-77
2024/01/03 02:22:20;;;;;;;1.30;0.20;;;;;;;-6.62;61.04;101317.78;5043224;28;20060;-78
2024/01/03 02:24:46;;;;;;;0.30;0.10;;;;;;;-6.66;61.11;101301.47;5044669;28;20507;-77
2024/01/03 02:27:13;;;;;;;0.00;0.00;;;;;;;-6.63;60.80;101316.03;5045774;28;20124;-78
2024/01/03 02:29:40;;;;;;;0.95;0.17;;;;;;;-6.63;60.84;101312.59;5047986;28;20049;-77
2024/01/03 02:32:08;;;;;;;0.00;0.00;;;;;;;-6.63;60.58;101308.41;5042246;28;20084;-77
2024/01/03 02:34:35;;;;;;;1.88;0.13;;;;;;;-6.67;60.31;101301.38;5040915;28;20106;-79
2024/01/03 02:37:03;;;;;;;0.88;0.20;;;;;;;-6.66;60.68;101309.09;5047457;28;20464;-77
2024/01/03 02:39:31;;;;;;;0.55;0.10;;;;;;;-6.66;59.57;101298.06;5043145;28;20485;-77
2024/01/03 02:41:58;;;;;;;0.13;0.10;;;;;;;-6.70;59.54;101291.91;5045596;28;20049;-78
2024/01/03 02:44:27;;;;;;;1.60;0.20;;;;;;;-6.69;59.65;101297.88;5045105;28;20092;-76
2024/01/03 02:46:54;;;;;;;0.00;0.00;;;;;;;-6.70;59.59;101301.22;5044471;28;20045;-77
2024/01/03 02:49:21;;;;;;;0.57;0.00;;;;;;;-6.73;59.86;101286.66;5044651;28;20570;-77
2024/01/03 02:51:48;;;;;;;1.98;0.20;;;;;;;-6.75;60.01;101280.63;5042913;28;20072;-77
2024/01/03 02:54:15;;;;;;;1.10;0.20;;;;;;;-6.74;60.12;101281.50;5048532;28;20691;-76
2024/01/03 02:56:43;;;;;;;0.10;0.00;;;;;;;-6.74;59.96;101282.34;5050359;28;20073;-78
2024/01/03 02:59:10;;;;;;;2.35;0.20;;;;;;;-6.75;60.30;101275.53;5047598;28;20112;-77
2024/01/03 03:01:37;;;;;;;0.88;0.20;;;;;;;-6.77;60.23;101278.78;5050031;28;20045;-74
2024/01/03 03:04:04;;;;;;;4.03;0.30;;;;;;;-6.76;60.54;101281.38;5030745;28;20136;-74
2024/01/03 03:06:31;;;;;;;2.67;0.20;;;;;;;-6.76;60.05;101276.28;5040703;28;20084;-73
2024/01/03 03:08:58;;;;;;;2.78;0.40;;;;;;;-6.77;60.06;101264.38;5041969;28;20120;-73
2024/01/03 03:11:25;;;;;;;2.58;0.95;;;;;;;-6.78;60.27;101267.69;5039722;28;20597;-73
2024/01/03 03:13:53;;;;;;;0.13;0.13;;;;;;;-6.77;60.73;101269.47;5040457;28;20084;-73
2024/01/03 03:16:20;;;;;;;1.08;0.10;;;;;;;-6.78;61.15;101262.59;5038646;28;20511;-73
2024/01/03 03:18:47;;;;;;;0.25;0.10;;;;;;;-6.76;61.15;101258.50;5039435;28;20530;-73
2024/01/03 03:21:14;;;;;;;1.75;0.10;;;;;;;-6.77;60.61;101256.75;5041969;28;20909;-74
2024/01/03 03:23:41;;;;;;;0.30;0.10;;;;;;;-6.76;60.47;101271.22;5048157;28;20503;-78
2024/01/03 03:26:08;;;;;;;0.28;0.20;;;;;;;-6.76;60.20;101250.84;5050435;28;20041;-77
2024/01/03 03:28:35;;;;;;;0.22;0.10;;;;;;;-6.76;60.98;101271.22;5045235;28;20487;-76
2024/01/03 03:31:04;;;;;;;2.70;0.20;;;;;;;-6.75;60.43;101251.72;5046783;28;20128;-77
2024/01/03 03:33:32;;;;;;;1.13;0.17;;;;;;;-6.75;60.46;101264.44;5042483;28;20472;-76
2024/01/03 03:35:59;;;;;;;2.85;0.20;;;;;;;-6.77;60.35;101266.94;5048647;28;20041;-77
2024/01/03 03:38:26;;;;;;;2.13;0.28;;;;;;;-6.77;60.74;101268.59;5050777;28;20135;-78
2024/01/03 03:40:53;;;;;;;2.28;0.20;;;;;;;-6.77;60.92;101256.75;5041472;28;20072;-79
2024/01/03 03:43:20;;;;;;;0.08;0.05;;;;;;;-6.75;60.99;101250.09;5049690;28;20473;-77
2024/01/03 03:45:47;;;;;;;0.47;0.20;;;;;;;-6.77;61.13;101263.50;5049356;28;20092;-77
2024/01/03 03:48:15;;;;;;;0.75;0.20;;;;;;;-6.78;61.15;101242.25;5051323;28;20309;-77
2024/01/03 03:50:42;;;;;;;0.10;0.00;;;;;;;-6.78;60.83;101246.47;5048087;28;20084;-78
2024/01/03 03:53:10;;;;;;;0.90;0.10;;;;;;;-6.78;60.38;101247.34;5043859;28;20139;-78
2024/01/03 03:55:41;;;;;;;0.00;0.00;;;;;;;-6.78;60.23;101249.88;5049177;28;20045;-78
2024/01/03 03:58:08;;;;;;;1.30;0.10;;;;;;;-6.78;60.79;101244.78;5049736;28;20052;-77
2024/01/03 04:00:35;;;;;;;0.40;0.40;;;;;;;-6.77;59.93;101238.06;5042190;28;20073;-78
2024/01/03 04:03:06;;;;;;;2.05;0.90;;;;;;;-6.78;60.93;101237.16;5046365;28;20082;-77
2024/01/03 04:05:34;;;;;;;3.88;0.20;;;;;;;-6.78;59.97;101231.19;5046280;28;20102;-77
2024/01/03 04:08:01;;;;;;;0.80;0.15;;;;;;;-6.79;60.95;101234.56;5046620;28;20045;-78
2024/01/03 04:10:28;;;;;;;0.75;0.03;;;;;;;-6.85;60.74;101227.47;5042277;28;20132;-77
2024/01/03 04:12:56;;;;;;;0.00;0.00;;;;;;;-6.79;61.03;101229.47;5044263;28;20140;-71
2024/01/03 04:15:23;;;;;;;1.65;0.03;;;;;;;-6.79;61.42;101220.16;5041768;28;20120;-71
2024/01/03 04:17:50;;;;;;;1.10;0.10;;;;;;;-6.75;61.59;101231.38;5040835;28;20123;-71
2024/01/03 04:20:17;;;;;;;0.20;0.05;;;;;;;-6.75;61.13;101233.91;5040766;28;20470;-71
2024/01/03 04:22:46;;;;;;;0.00;0.00;;;;;;;-6.75;61.19;101234.81;5040922;28;20136;-71
2024/01/03 04:25:13;;;;;;;2.95;0.17;;;;;;;-6.77;61.09;101232.97;5038742;28;20060;-71
2024/01/03 04:27:40;;;;;;;1.30;0.20;;;;;;;-6.79;60.85;101243.06;5040969;28;20125;-71
2024/01/03 04:30:08;;;;;;;1.55;0.20;;;;;;;-6.81;61.36;101223.41;5035943;28;22037;-71
2024/01/03 04:32:35;;;;;;;2.60;0.20;;;;;;;-6.81;60.93;101221.72;5048289;28;20451;-81
2024/01/03 04:35:02;;;;;;;0.00;0.00;;;;;;;-6.81;61.26;101229.38;5051494;28;20068;-80
2024/01/03 04:37:30;;;;;;;0.00;0.00;;;;;;;-6.81;62.18;101221.72;5049210;28;20045;-82
2024/01/03 04:39:58;;;;;;;0.38;0.10;;;;;;;-6.79;61.90;101225.25;5051108;28;20095;-82
2024/01/03 04:42:25;;;;;;;1.58;0.20;;;;;;;-6.80;62.00;101227.72;5050970;28;20822;-82
2024/01/03 04:44:52;;;;;;;0.30;0.15;;;;;;;-6.80;61.59;101230.25;5038842;28;20076;-82
2024/01/03 04:47:19;;;;;;;0.13;0.10;;;;;;;-6.82;62.21;101230.16;5044848;28;20048;-82
2024/01/03 04:49:47;;;;;;;3.05;0.20;;;;;;;-6.81;61.90;101224.28;5052072;28;20486;-82
2024/01/03 04:52:14;;;;;;;1.85;0.17;;;;;;;-6.81;61.51;101209.00;5051641;28;20080;-81
2024/01/03 04:54:41;;;;;;;0.35;0.10;;;;;;;-6.82;62.01;101204.72;5052413;28;20088;-82
2024/01/03 04:57:09;;;;;;;2.20;0.30;;;;;;;-6.85;61.41;101203.69;5048943;28;20068;-81
2024/01/03 04:59:36;;;;;;;0.20;0.10;;;;;;;-6.82;61.84;101226.75;5051687;28;20099;-82
2024/01/03 05:02:03;;;;;;;0.63;0.20;;;;;;;-6.90;61.88;101204.31;5049666;28;20073;-81
2024/01/03 05:04:30;;;;;;;0.73;0.05;;;;;;;-6.81;62.16;101216.66;5047506;28;20049;-82
2024/01/03 05:06:58;;;;;;;1.10;0.20;;;;;;;-6.80;61.76;101218.41;5050441;28;20064;-81
2024/01/03 05:09:25;;;;;;;1.17;0.20;;;;;;;-6.83;62.37;101212.25;5052753;28;20071;-82
2024/01/03 05:11:51;;;;;;;0.10;0.08;;;;;;;-6.81;62.26;101211.56;5050258;28;20068;-81
2024/01/03 05:14:20;;;;;;;0.38;0.10;;;;;;;-6.82;62.22;101216.56;5046196;28;20111;-81
2024/01/03 05:16:47;;;;;;;1.35;0.15;;;;;;;-6.81;62.57;101216.66;5050377;28;20094;-82
2024/01/03 05:19:14;;;;;;;0.80;0.20;;;;;;;-6.81;62.58;101219.19;5050479;28;20159;-81
2024/01/03 05:21:41;;;;;;;0.00;0.00;;;;;;;-6.80;62.36;101210.78;5050281;28;20083;-80
2024/01/03 05:24:08;;;;;;;5.75;0.10;;;;;;;-6.79;62.85;101202.34;5049635;28;20132;-81
2024/01/03 05:26:35;;;;;;;0.77;0.10;;;;;;;-6.80;63.26;101208.25;5050587;28;20076;-81
2024/01/03 05:29:02;;;;;;;0.50;0.20;;;;;;;-6.77;62.94;101213.50;5049052;28;20081;-81
2024/01/03 05:31:30;;;;;;;1.00;0.10;;;;;;;-6.77;62.77;101202.44;5049460;28;20442;-82
2024/01/03 05:33:57;;;;;;;0.35;0.10;;;;;;;-6.76;63.16;101210.13;5043352;28;20095;-81
2024/01/03 05:36:24;;;;;;;0.70;0.20;;;;;;;-6.76;63.03;101210.13;5051570;28;20068;-81
2024/01/03 05:38:51;;;;;;;0.30;0.10;;;;;;;-6.77;63.07;101205.84;5047404;28;20152;-82
2024/01/03 05:41:18;;;;;;;3.97;1.02;;;;;;;-6.77;63.33;101208.41;5050994;28;20076;-81
2024/01/03 05:43:46;;;;;;;0.90;0.17;;;;;;;-6.77;63.22;101217.72;5039557;28;20127;-72
2024/01/03 05:46:13;;;;;;;0.20;0.10;;;;;;;-6.79;63.07;101204.88;5039398;28;20045;-72
2024/01/03 05:48:42;;;;;;;1.15;0.20;;;;;;;-6.80;62.64;101212.47;5038359;28;20144;-73
2024/01/03 05:51:10;;;;;;;0.05;0.05;;;;;;;-6.79;63.00;101204.03;5000756;28;20414;-73
2024/01/03 05:53:37;;;;;;;0.70;0.20;;;;;;;-6.80;62.13;101208.25;5039008;28;20053;-72
2024/01/03 05:56:05;;;;;;;0.82;0.15;;;;;;;-6.80;61.56;101204.81;5038397;28;20153;-73
2024/01/03 05:58:32;;;;;;;1.50;0.22;;;;;;;-6.82;61.90;101199.63;5037803;28;20076;-72
2024/01/03 06:00:59;;;;;;;0.57;0.10;;;;;;;-6.81;62.17;101198.84;5037468;28;20124;-72
2024/01/03 06:03:26;;;;;;;3.67;0.40;;;;;;;-6.83;62.18;101204.63;5038725;28;20128;-73
2024/01/03 06:05:55;;;;;;;0.20;0.10;;;;;;;-6.81;62.56;101211.56;5042178;28;20140;-72
2024/01/03 06:08:21;;;;;;;1.55;0.20;;;;;;;-6.80;62.64;101205.69;5031822;28;20131;-72
2024/01/03 06:10:48;;;;;;;0.50;0.20;;;;;;;-6.80;62.33;101208.25;5038318;28;20041;-72
2024/01/03 06:13:15;;;;;;;0.65;0.20;;;;;;;-6.81;62.20;101205.59;5040761;28;20524;-72
2024/01/03 06:15:43;;;;;;;1.95;0.10;;;;;;;-6.84;62.36;101195.25;5031592;28;20136;-73
2024/01/03 06:18:11;;;;;;;1.95;0.30;;;;;;;-6.81;62.84;101211.56;5040015;28;20037;-72
2024/01/03 06:20:38;;;;;;;0.90;0.20;;;;;;;-6.80;62.62;101215.88;5036930;28;20049;-73
2024/01/03 06:23:06;;;;;;;3.75;0.20;;;;;;;-6.79;63.10;101212.53;5038049;28;20079;-72
2024/01/03 06:25:33;;;;;;;2.28;0.08;;;;;;;-6.78;62.98;101210.84;5045545;28;20080;-72
2024/01/03 06:28:00;;;;;;;1.08;0.30;;;;;;;-6.76;63.21;101215.22;5043647;28;20085;-72
2024/01/03 06:30:27;;;;;;;0.52;0.10;;;;;;;-6.79;63.00;101215.06;5040754;28;20159;-72
2024/01/03 06:32:54;;;;;;;1.52;0.10;;;;;;;-6.81;62.72;101206.47;5044389;28;20069;-74
2024/01/03 06:35:21;;;;;;;0.25;0.10;;;;;;;-6.80;62.89;101208.25;5043301;28;20524;-73
2024/01/03 06:37:48;;;;;;;1.63;0.38;;;;;;;-6.79;62.39;101209.09;5042909;28;20053;-74
2024/01/03 06:40:17;;;;;;;0.63;0.22;;;;;;;-6.88;62.50;101200.19;5042344;28;20056;-73
2024/01/03 06:42:44;;;;;;;0.73;0.28;;;;;;;-6.80;62.64;101198.06;5038000;28;20575;-73
2024/01/03 06:45:11;;;;;;;4.55;0.70;;;;;;;-6.82;62.80;101203.84;5041653;28;20128;-74
2024/01/03 06:47:38;;;;;;;0.10;0.10;;;;;;;-6.82;62.76;101208.94;5040959;28;20156;-74
2024/01/03 06:50:05;;;;;;;0.03;0.00;;;;;;;-6.82;62.34;101214.03;5040058;28;20121;-74
2024/01/03 06:52:32;;;;;;;3.13;1.23;;;;;;;-6.82;62.18;101219.13;5045301;28;20073;-73
2024/01/03 06:54:59;;;;;;;3.80;0.30;;;;;;;-6.84;62.01;101208.84;5040720;28;20583;-72
2024/01/03 06:57:27;;;;;;;1.13;0.10;;;;;;;-6.87;61.96;101207.00;5042207;28;20136;-74
2024/01/03 06:59:54;;;;;;;0.30;0.20;;;;;;;-6.84;62.34;101216.47;5043309;28;20045;-72
2024/01/03 07:02:21;;;;;;;0.43;0.10;;;;;;;-6.85;61.99;101209.66;5042435;28;20072;-73
2024/01/03 07:04:48;;;;;;;0.05;0.00;;;;;;;-6.83;62.50;101217.34;5038122;28;20141;-72
2024/01/03 07:07:17;;;;;;;2.53;0.60;;;;;;;-6.83;62.61;101207.16;5044668;28;20118;-72
2024/01/03 07:09:44;;;;;;;2.53;0.10;;;;;;;-6.83;62.43;101202.97;5042854;28;20414;-72
2024/01/03 07:12:11;;;;;;;0.10;0.05;;;;;;;-6.83;62.71;101213.16;5039436;28;20080;-72
2024/01/03 07:14:39;;;;;;;0.15;0.05;;;;;;;-6.81;62.57;101215.78;5044899;28;20160;-73
2024/01/03 07:17:06;;;;;;;3.60;0.20;;;;;;;-6.80;62.53;101218.41;5037379;28;20107;-73
2024/01/03 07:19:33;;;;;;;0.70;0.38;;;;;;;-6.79;62.75;101224.38;5042938;28;20128;-73
2024/01/03 07:22:00;;;;;;;0.10;0.10;;;;;;;-6.81;62.72;101219.19;5040972;28;20120;-72
2024/01/03 07:24:27;;;;;;;0.10;0.05;;;;;;;-6.81;62.48;101210.69;5041404;28;20510;-72
2024/01/03 07:26:54;;;;;;;0.20;0.10;;;;;;;-6.82;62.68;101199.63;5040157;28;20131;-72
2024/01/03 07:29:21;;;;;;;0.82;0.13;;;;;;;-6.81;63.18;101206.47;5039620;28;20046;-73
2024/01/03 07:31:50;;;;;;;2.40;0.20;;;;;;;-6.82;62.75;101209.81;5039648;28;20202;-72
2024/01/03 07:34:16;;;;;;;0.75;0.68;;;;;;;-6.82;63.02;101199.63;5038414;28;20140;-72
2024/01/03 07:36:43;;;;;;;1.88;0.20;;;;;;;-6.82;63.09;101203.84;5039602;28;20155;-72
2024/01/03 07:39:10;;;;;;;1.02;0.30;;;;;;;-6.83;62.81;101205.53;5037988;28;20077;-72
2024/01/03 07:41:37;;;;;;;0.10;0.10;;;;;;;-6.84;63.48;101198.66;5042367;28;20100;-71
2024/01/03 07:44:04;;;;;;;0.65;0.17;;;;;;;-6.84;63.45;101205.44;5040637;28;20133;-71
2024/01/03 07:46:31;;;;;;;0.73;0.20;;;;;;;-6.85;63.33;101196.94;5039532;28;20132;-71
2024/01/03 07:49:00;;;;;;;0.82;0.30;;;;;;;-6.84;62.93;101203.75;5040767;28;20068;-71
2024/01/03 07:51:27;;;;;;;4.43;0.63;;;;;;;-6.84;63.60;101211.38;5037872;28;20095;-71
2024/01/03 07:53:54;;;;;;;0.57;0.20;;;;;;;-6.83;62.76;101202.97;5041091;28;20084;-73
2024/01/03 07:56:20;;;;;;;4.00;0.70;;;;;;;-6.85;62.50;101204.56;5039415;28;20080;-71
2024/01/03 07:58:48;;;;;;;0.38;0.20;;;;;;;-6.85;62.79;101190.97;5040795;28;20483;-70
2024/01/03 08:01:15;;;;;;;0.30;0.13;;;;;;;-6.84;63.26;101203.75;5039405;28;20069;-71
2024/01/03 08:03:41;;;;;;;1.20;0.30;;;;;;;-6.83;63.16;101212.25;5054025;28;20077;-82
2024/01/03 08:06:11;;;;;;;1.20;0.20;;;;;;;-6.87;63.18;101199.38;5053058;28;20077;-82
2024/01/03 08:08:38;;;;;;;1.95;0.60;;;;;;;-6.84;63.11;101211.38;5046490;28;20563;-81
2024/01/03 08:11:05;;;;;;;2.53;0.17;;;;;;;-6.85;63.06;101217.28;5048866;28;20068;-79
2024/01/03 08:13:32;;;;;;;1.65;0.25;;;;;;;-6.84;62.57;101205.44;5046472;28;20099;-78
2024/01/03 08:15:59;;;;;;;2.03;0.20;;;;;;;-6.85;62.32;101206.25;5041284;28;20094;-82
2024/01/03 08:18:26;;;;;;;0.32;0.10;;;;;;;-6.85;62.84;101214.75;5050250;28;20072;-79
2024/01/03 08:20:53;;;;;;;0.20;0.10;;;;;;;-6.84;62.84;101208.84;5046896;28;20041;-80
2024/01/03 08:23:21;;;;;;;1.25;0.30;;;;;;;-6.82;63.10;101202.19;5049730;28;20083;-81
2024/01/03 08:25:48;;;;;;;0.82;0.20;;;;;;;-6.82;63.28;101203.84;5050613;28;20053;-82
2024/01/03 08:28:15;;;;;;;1.00;0.40;;;;;;;-6.82;63.10;101209.81;5051126;28;20072;-80
2024/01/03 08:30:42;;;;;;;0.93;0.28;;;;;;;-6.81;62.94;101197.97;5043682;28;20479;-83
2024/01/03 08:33:09;;;;;;;0.90;0.50;;;;;;;-6.81;62.63;101210.69;5045703;28;20456;-78
2024/01/03 08:35:36;;;;;;;1.17;0.30;;;;;;;-6.83;62.97;101200.44;5048549;28;20159;-78
2024/01/03 08:38:03;;;;;;;2.83;0.20;;;;;;;-6.84;62.63;101201.22;5042376;28;20045;-77
2024/01/03 08:40:32;;;;;;;0.52;0.20;;;;;;;-6.82;62.65;101194.56;5045415;28;20076;-79
2024/01/03 08:43:00;;;;;;;2.47;0.20;;;;;;;-6.82;62.91;101196.22;5048330;28;20080;-81
2024/01/03 08:45:27;;;;;;;0.57;0.30;;;;;;;-6.90;62.52;101181.41;5046564;28;20057;-81
2024/01/03 08:47:54;;;;;;;2.42;0.40;;;;;;;-6.82;62.92;101204.72;5039590;28;20831;-80
2024/01/03 08:50:21;;;;;;;2.13;0.50;;;;;;;-6.82;62.32;101198.78;5045621;28;20525;-78
2024/01/03 08:52:48;;;;;;;0.25;0.20;;;;;;;-6.83;62.29;101191.91;5040725;28;20584;-71
2024/01/03 08:55:15;;;;;;;0.35;0.20;;;;;;;-6.84;61.97;101196.13;5042367;28;20045;-71
2024/01/03 08:57:44;;;;;;;1.02;0.68;;;;;;;-6.84;62.03;101203.75;5036358;28;20129;-72
2024/01/03 09:00:12;;;;;;;3.80;0.30;;;;;;;-6.87;62.38;101199.38;5042053;28;20128;-72
2024/01/03 09:02:39;;;;;;;1.05;0.00;;;;;;;-6.87;62.46;101195.97;5041539;28;20080;-72
2024/01/03 09:05:07;;;;;;;0.38;0.30;;;;;;;-6.87;62.07;101190.88;5041999;28;20128;-73
2024/01/03 09:07:34;;;;;;;3.35;0.20;;;;;;;-6.85;62.10;101196.94;5037709;28;20478;-71
2024/01/03 09:10:01;;;;;;;0.47;0.22;;;;;;;-6.84;62.44;101192.72;5037108;28;20053;-76
2024/01/03 09:12:29;;;;;;;1.85;0.38;;;;;;;-6.83;62.45;101187.72;5038858;28;20140;-70
2024/01/03 09:14:58;;;;;;;1.38;0.30;;;;;;;-6.85;62.32;101179.13;5040293;28;20668;-70
2024/01/03 09:17:25;;;;;;;2.05;0.20;;;;;;;-6.85;61.72;101185.88;5039989;28;20076;-70
2024/01/03 09:19:52;;;;;;;0.82;0.20;;;;;;;-6.85;62.27;101184.22;5036264;28;20042;-70
2024/01/03 09:22:19;;;;;;;0.90;0.20;;;;;;;-6.84;61.90;101185.09;5037355;28;20132;-70
2024/01/03 09:24:45;;;;;;;1.98;0.28;;;;;;;-6.84;61.98;101198.66;5036880;28;20140;-69
2024/01/03 09:27:12;;;;;;;1.33;0.28;;;;;;;-6.84;61.96;101190.16;5040336;28;20091;-70
2024/01/03 09:29:41;;;;;;;2.17;0.30;;;;;;;-6.83;62.37;101187.72;5041947;28;20083;-69
2024/01/03 09:32:09;;;;;;;0.45;0.10;;;;;;;-6.82;61.96;101175.88;5036525;28;20084;-70
2024/01/03 09:34:39;;;;;;;0.63;0.22;;;;;;;-6.83;62.29;101177.53;5038180;28;20076;-70
2024/01/03 09:37:06;;;;;;;1.52;0.20;;;;;;;-6.82;62.33;101179.28;5037908;28;20052;-70
2024/01/03 09:39:34;;;;;;;1.30;0.63;;;;;;;-6.84;63.02;101185.94;5037833;28;20049;-70
2024/01/03 09:42:03;;;;;;;0.38;0.20;;;;;;;-6.83;64.49;101185.19;5034669;28;20060;-70
2024/01/03 09:44:30;;;;;;;2.70;0.60;;;;;;;-6.84;64.02;101183.41;5035465;28;20144;-70
2024/01/03 09:46:57;;;;;;;0.50;0.20;;;;;;;-6.85;64.42;101189.28;5040498;28;20064;-70
2024/01/03 09:49:26;;;;;;;1.38;0.28;;;;;;;-6.88;64.30;101172.19;5032630;28;20139;-71
2024/01/03 09:51:54;;;;;;;0.47;0.20;;;;;;;-6.87;63.81;101170.53;5040610;28;20063;-70
2024/01/03 09:54:21;;;;;;;2.70;0.28;;;;;;;-6.87;63.94;101170.53;5036297;28;20479;-69
2024/01/03 09:56:48;;;;;;;0.32;0.25;;;;;;;-6.85;63.94;101163.00;5039078;28;20140;-71
2024/01/03 09:59:17;;;;;;;3.60;0.40;;;;;;;-6.86;63.34;101162.13;5038145;28;20120;-71
2024/01/03 10:01:54;;;;;;;2.58;0.40;;;;;;;-6.85;64.39;101158.78;5041074;28;20095;-74
2024/01/03 10:04:21;;;;;;;1.35;0.20;;;;;;;-6.87;63.99;101151.03;5037951;28;20788;-74
2024/01/03 10:06:54;;;;;;;0.52;0.40;;;;;;;-6.86;64.00;101151.94;5034013;28;20740;-77
2024/01/03 10:09:22;;;;;;;1.13;0.10;;;;;;;-6.87;64.03;101155.25;5034433;28;20099;-76
2024/01/03 10:11:52;;;;;;;2.00;0.60;;;;;;;-6.84;64.18;101160.50;5041664;28;20041;-77
2024/01/03 10:14:21;;;;;;;0.10;0.10;;;;;;;-6.85;63.88;101151.13;5045955;28;20488;-76
2024/01/03 10:16:48;;;;;;;0.43;0.20;;;;;;;-6.85;62.94;101168.06;5037484;28;20052;-77
2024/01/03 10:19:17;;;;;;;0.50;0.20;;;;;;;-6.84;63.41;101160.50;5035919;28;20076;-76
2024/01/03 10:21:48;;;;;;;0.17;0.15;;;;;;;-6.83;63.62;101161.38;5017517;28;20056;-75
2024/01/03 10:24:17;;;;;;;0.73;0.20;;;;;;;-6.84;63.74;101164.72;5037633;28;20466;-75
2024/01/03 10:26:45;;;;;;;1.30;0.20;;;;;;;-6.85;63.98;101151.13;5033079;28;20139;-76
2024/01/03 10:29:13;;;;;;;0.30;0.20;;;;;;;-6.85;64.36;101153.69;5039242;28;20050;-76
2024/01/03 10:31:40;;;;;;;0.57;0.20;;;;;;;-6.85;63.64;101145.19;5038046;28;20839;-75
2024/01/03 10:34:12;;;;;;;2.15;0.30;;;;;;;-6.84;64.37;101150.34;5035935;28;20048;-76
2024/01/03 10:36:40;;;;;;;0.93;0.10;;;;;;;-6.85;63.22;101137.56;5040293;28;20131;-75
2024/01/03 10:39:08;;;;;;;2.10;0.15;;;;;;;-6.85;63.24;101148.59;5036751;28;20128;-76
2024/01/03 10:41:39;;;;;;;0.00;0.00;;;;;;;-6.83;63.34;101148.66;5035106;28;20551;-74
2024/01/03 10:44:07;;;;;;;0.17;0.10;;;;;;;-6.89;63.59;101126.34;5035314;28;21533;-74
2024/01/03 10:46:33;;;;;;;3.53;0.20;;;;;;;-6.85;63.83;101146.03;5034911;28;20695;-76
2024/01/03 10:49:01;;;;;;;1.17;0.43;;;;;;;-6.82;64.14;101127.53;5038227;28;20052;-76
2024/01/03 10:51:33;;;;;;;0.93;0.20;;;;;;;-6.83;64.26;101135.94;5038741;28;20065;-74
2024/01/03 10:54:01;;;;;;;2.10;0.10;;;;;;;-6.84;63.99;101135.06;5032213;28;20041;-74
2024/01/03 10:56:29;;;;;;;2.17;0.10;;;;;;;-6.84;64.60;101129.97;5039223;28;20053;-75
2024/01/03 10:58:58;;;;;;;3.05;0.65;;;;;;;-6.80;64.40;101131.91;5034929;28;20076;-77
2024/01/03 11:01:28;;;;;;;0.95;0.10;;;;;;;-6.80;64.66;101126.81;5039065;28;20080;-75
2024/01/03 11:04:04;;;;;;;1.02;0.30;;;;;;;-6.80;64.82;101134.47;5036062;28;20094;-77
2024/01/03 11:06:39;;;;;;;0.10;0.10;;;;;;;-6.81;63.80;101125.06;5038634;28;20060;-74
2024/01/03 11:09:08;;;;;;;2.78;0.70;;;;;;;-6.82;63.86;101119.91;5035625;28;20183;-75
2024/01/03 11:11:37;;;;;;;2.05;0.25;;;;;;;-6.81;64.14;101124.19;5042188;28;20048;-74
2024/01/03 11:14:24;;;;;;;3.00;0.10;;;;;;;-6.83;64.06;101118.13;5042683;28;20065;-74
2024/01/03 11:16:51;;;;;;;0.20;0.10;;;;;;;-6.85;64.51;101104.47;5040863;28;20056;-78
2024/01/03 11:19:28;;;;;;;0.40;0.10;;;;;;;-6.85;64.57;101105.34;5040688;28;20142;-77
2024/01/03 11:21:55;;;;;;;1.35;0.20;;;;;;;-6.85;64.55;101114.66;5042616;28;20045;-76
2024/01/03 11:24:55;;;;;;;0.45;0.10;;;;;;;-6.84;64.53;101112.16;5043096;28;20163;-77
2024/01/03 11:27:23;;;;;;;4.38;0.17;;;;;;;-6.85;64.04;101107.88;5042766;28;20506;-76